sensor_id;sensor_type;location;lat;lon;timestamp;P1;durP1;ratioP1;P2;durP2;ratioP2
76962;SDS011;65902;51.452;7.198;2023-02-15T00:12:37;22.50;;;13.85;;
76962;SDS011;65902;51.452;7.198;2023-02-15T00:13:38;28.95;;;15.40;;
76962;SDS011;65902;51.452;7.198;2023-02-15T00:14:41;24.42;;;14.60;;
76962;SDS011;65902;51.452;7.198;2023-02-15T00:15:42;24.15;;;14.55;;
76962;SDS011;65902;51.452;7.198;2023-02-15T00:16:43;23.55;;;15.70;;
76962;SDS011;65902;51.452;7.198;2023-02-15T00:17:44;22.52;;;14.70;;
76962;SDS011;65902;51.452;7.198;2023-02-15T00:18:44;26.20;;;15.65;;
76962;SDS011;65902;51.452;7.198;2023-02-15T00:19:45;22.90;;;14.63;;
76962;SDS011;65902;51.452;7.198;2023-02-15T00:20:46;25.23;;;18.58;;
76962;SDS011;65902;51.452;7.198;2023-02-15T00:21:47;25.05;;;15.60;;
76962;SDS011;65902;51.452;7.198;2023-02-15T00:22:48;24.17;;;16.65;;
76962;SDS011;65902;51.452;7.198;2023-02-15T00:23:48;24.85;;;17.23;;
76962;SDS011;65902;51.452;7.198;2023-02-15T00:24:49;25.42;;;16.73;;
76962;SDS011;65902;51.452;7.198;2023-02-15T00:25:50;24.27;;;16.00;;
76962;SDS011;65902;51.452;7.198;2023-02-15T00:26:51;22.52;;;14.43;;
76962;SDS011;65902;51.452;7.198;2023-02-15T00:27:52;23.55;;;18.83;;
76962;SDS011;65902;51.452;7.198;2023-02-15T00:28:53;27.63;;;15.40;;
76962;SDS011;65902;51.452;7.198;2023-02-15T00:29:54;26.27;;;17.02;;
76962;SDS011;65902;51.452;7.198;2023-02-15T00:30:56;23.67;;;17.00;;
76962;SDS011;65902;51.452;7.198;2023-02-15T00:33:05;26.10;;;15.23;;
76962;SDS011;65902;51.452;7.198;2023-02-15T00:34:07;21.95;;;14.82;;
76962;SDS011;65902;51.452;7.198;2023-02-15T00:35:11;25.30;;;16.48;;
76962;SDS011;65902;51.452;7.198;2023-02-15T00:36:12;25.13;;;16.15;;
76962;SDS011;65902;51.452;7.198;2023-02-15T00:37:13;23.83;;;15.30;;
76962;SDS011;65902;51.452;7.198;2023-02-15T00:38:14;27.55;;;17.80;;
76962;SDS011;65902;51.452;7.198;2023-02-15T00:39:15;26.90;;;17.30;;
76962;SDS011;65902;51.452;7.198;2023-02-15T00:40:16;24.38;;;16.88;;
76962;SDS011;65902;51.452;7.198;2023-02-15T00:41:17;25.88;;;16.08;;
76962;SDS011;65902;51.452;7.198;2023-02-15T00:42:18;24.95;;;17.70;;
76962;SDS011;65902;51.452;7.198;2023-02-15T00:43:18;26.45;;;16.33;;
76962;SDS011;65902;51.452;7.198;2023-02-15T00:44:19;23.10;;;15.02;;
76962;SDS011;65902;51.452;7.198;2023-02-15T00:45:20;24.30;;;15.50;;
76962;SDS011;65902;51.452;7.198;2023-02-15T00:46:21;24.92;;;15.25;;
76962;SDS011;65902;51.452;7.198;2023-02-15T00:47:22;28.63;;;16.48;;
76962;SDS011;65902;51.452;7.198;2023-02-15T00:48:23;25.55;;;15.82;;
76962;SDS011;65902;51.452;7.198;2023-02-15T00:49:24;24.98;;;16.77;;
76962;SDS011;65902;51.452;7.198;2023-02-15T00:50:25;24.40;;;15.43;;
76962;SDS011;65902;51.452;7.198;2023-02-15T00:51:26;22.90;;;15.90;;
76962;SDS011;65902;51.452;7.198;2023-02-15T00:52:27;23.30;;;18.05;;
76962;SDS011;65902;51.452;7.198;2023-02-15T00:53:28;22.85;;;16.08;;
76962;SDS011;65902;51.452;7.198;2023-02-15T00:54:29;25.40;;;18.73;;
76962;SDS011;65902;51.452;7.198;2023-02-15T00:55:29;27.20;;;17.05;;
76962;SDS011;65902;51.452;7.198;2023-02-15T00:56:30;24.58;;;15.55;;
76962;SDS011;65902;51.452;7.198;2023-02-15T00:57:31;24.92;;;21.00;;
76962;SDS011;65902;51.452;7.198;2023-02-15T00:58:31;25.20;;;17.15;;
76962;SDS011;65902;51.452;7.198;2023-02-15T00:59:32;23.90;;;16.52;;
76962;SDS011;65902;51.452;7.198;2023-02-15T01:00:33;24.30;;;15.93;;
76962;SDS011;65902;51.452;7.198;2023-02-15T01:01:34;25.27;;;16.77;;
76962;SDS011;65902;51.452;7.198;2023-02-15T01:02:35;26.42;;;15.77;;
76962;SDS011;65902;51.452;7.198;2023-02-15T01:03:36;24.20;;;16.20;;
76962;SDS011;65902;51.452;7.198;2023-02-15T01:04:37;23.65;;;15.30;;
76962;SDS011;65902;51.452;7.198;2023-02-15T01:05:38;25.02;;;16.77;;
76962;SDS011;65902;51.452;7.198;2023-02-15T01:06:38;26.00;;;16.10;;
76962;SDS011;65902;51.452;7.198;2023-02-15T01:07:39;28.85;;;20.45;;
76962;SDS011;65902;51.452;7.198;2023-02-15T01:08:40;25.40;;;16.60;;
76962;SDS011;65902;51.452;7.198;2023-02-15T01:09:40;26.30;;;16.85;;
76962;SDS011;65902;51.452;7.198;2023-02-15T01:10:41;24.10;;;17.23;;
76962;SDS011;65902;51.452;7.198;2023-02-15T01:11:44;27.77;;;17.17;;
76962;SDS011;65902;51.452;7.198;2023-02-15T01:12:45;23.00;;;15.68;;
76962;SDS011;65902;51.452;7.198;2023-02-15T01:13:46;23.00;;;15.88;;
76962;SDS011;65902;51.452;7.198;2023-02-15T01:14:48;24.65;;;15.65;;
76962;SDS011;65902;51.452;7.198;2023-02-15T01:15:52;27.77;;;16.27;;
76962;SDS011;65902;51.452;7.198;2023-02-15T01:16:58;24.83;;;17.35;;
76962;SDS011;65902;51.452;7.198;2023-02-15T01:17:59;27.42;;;18.05;;
76962;SDS011;65902;51.452;7.198;2023-02-15T01:18:59;26.17;;;15.98;;
76962;SDS011;65902;51.452;7.198;2023-02-15T01:20:00;24.83;;;16.63;;
76962;SDS011;65902;51.452;7.198;2023-02-15T01:21:08;25.77;;;18.70;;
76962;SDS011;65902;51.452;7.198;2023-02-15T01:22:10;23.00;;;16.33;;
76962;SDS011;65902;51.452;7.198;2023-02-15T01:23:11;26.20;;;17.02;;
76962;SDS011;65902;51.452;7.198;2023-02-15T01:24:14;27.42;;;18.08;;
76962;SDS011;65902;51.452;7.198;2023-02-15T01:25:16;30.17;;;24.30;;
76962;SDS011;65902;51.452;7.198;2023-02-15T01:26:17;25.25;;;16.75;;
76962;SDS011;65902;51.452;7.198;2023-02-15T01:27:18;26.60;;;16.13;;
76962;SDS011;65902;51.452;7.198;2023-02-15T01:28:19;25.27;;;16.48;;
76962;SDS011;65902;51.452;7.198;2023-02-15T01:29:20;25.25;;;17.55;;
76962;SDS011;65902;51.452;7.198;2023-02-15T01:30:21;25.75;;;17.33;;
76962;SDS011;65902;51.452;7.198;2023-02-15T01:31:22;27.98;;;18.48;;
76962;SDS011;65902;51.452;7.198;2023-02-15T01:32:23;23.67;;;14.45;;
76962;SDS011;65902;51.452;7.198;2023-02-15T01:33:27;24.77;;;16.40;;
76962;SDS011;65902;51.452;7.198;2023-02-15T01:34:28;25.67;;;18.80;;
76962;SDS011;65902;51.452;7.198;2023-02-15T01:35:32;27.25;;;17.67;;
76962;SDS011;65902;51.452;7.198;2023-02-15T01:36:33;26.73;;;18.98;;
76962;SDS011;65902;51.452;7.198;2023-02-15T01:37:37;26.98;;;15.32;;
76962;SDS011;65902;51.452;7.198;2023-02-15T01:38:37;26.00;;;16.73;;
76962;SDS011;65902;51.452;7.198;2023-02-15T01:39:40;26.42;;;17.35;;
76962;SDS011;65902;51.452;7.198;2023-02-15T01:40:41;25.55;;;16.13;;
76962;SDS011;65902;51.452;7.198;2023-02-15T01:41:44;27.80;;;16.38;;
76962;SDS011;65902;51.452;7.198;2023-02-15T01:42:45;28.10;;;17.08;;
76962;SDS011;65902;51.452;7.198;2023-02-15T01:43:49;29.58;;;20.23;;
76962;SDS011;65902;51.452;7.198;2023-02-15T01:44:55;27.98;;;19.98;;
76962;SDS011;65902;51.452;7.198;2023-02-15T01:46:00;24.55;;;15.98;;
76962;SDS011;65902;51.452;7.198;2023-02-15T01:47:07;31.38;;;19.63;;
76962;SDS011;65902;51.452;7.198;2023-02-15T01:48:27;25.58;;;16.55;;
76962;SDS011;65902;51.452;7.198;2023-02-15T01:49:28;26.92;;;18.50;;
76962;SDS011;65902;51.452;7.198;2023-02-15T01:51:34;26.60;;;17.15;;
76962;SDS011;65902;51.452;7.198;2023-02-15T01:52:38;26.35;;;16.13;;
76962;SDS011;65902;51.452;7.198;2023-02-15T01:54:02;24.83;;;16.33;;
76962;SDS011;65902;51.452;7.198;2023-02-15T01:55:17;28.27;;;18.27;;
76962;SDS011;65902;51.452;7.198;2023-02-15T01:56:27;31.75;;;18.98;;
76962;SDS011;65902;51.452;7.198;2023-02-15T01:57:30;28.25;;;19.13;;
76962;SDS011;65902;51.452;7.198;2023-02-15T01:58:31;30.38;;;19.40;;
76962;SDS011;65902;51.452;7.198;2023-02-15T01:59:33;28.83;;;19.52;;
76962;SDS011;65902;51.452;7.198;2023-02-15T02:00:34;28.27;;;18.13;;
76962;SDS011;65902;51.452;7.198;2023-02-15T02:01:35;24.90;;;17.67;;
76962;SDS011;65902;51.452;7.198;2023-02-15T02:02:37;26.42;;;17.17;;
76962;SDS011;65902;51.452;7.198;2023-02-15T02:04:59;27.35;;;18.48;;
76962;SDS011;65902;51.452;7.198;2023-02-15T02:06:06;27.52;;;17.17;;
76962;SDS011;65902;51.452;7.198;2023-02-15T02:07:07;29.85;;;19.42;;
76962;SDS011;65902;51.452;7.198;2023-02-15T02:08:08;27.48;;;19.08;;
76962;SDS011;65902;51.452;7.198;2023-02-15T02:09:09;30.75;;;19.15;;
76962;SDS011;65902;51.452;7.198;2023-02-15T02:10:14;26.30;;;17.40;;
76962;SDS011;65902;51.452;7.198;2023-02-15T02:11:17;31.35;;;20.00;;
76962;SDS011;65902;51.452;7.198;2023-02-15T02:12:18;27.63;;;18.33;;
76962;SDS011;65902;51.452;7.198;2023-02-15T02:13:20;25.10;;;15.68;;
76962;SDS011;65902;51.452;7.198;2023-02-15T02:14:21;31.65;;;19.35;;
76962;SDS011;65902;51.452;7.198;2023-02-15T02:15:28;28.85;;;20.33;;
76962;SDS011;65902;51.452;7.198;2023-02-15T02:16:45;26.85;;;18.52;;
76962;SDS011;65902;51.452;7.198;2023-02-15T02:20:48;26.30;;;18.33;;
76962;SDS011;65902;51.452;7.198;2023-02-15T02:22:03;32.38;;;18.33;;
76962;SDS011;65902;51.452;7.198;2023-02-15T02:27:45;28.52;;;17.83;;
76962;SDS011;65902;51.452;7.198;2023-02-15T02:35:34;25.67;;;15.52;;
76962;SDS011;65902;51.452;7.198;2023-02-15T02:43:33;30.33;;;17.98;;
76962;SDS011;65902;51.452;7.198;2023-02-15T02:44:41;29.73;;;16.58;;
76962;SDS011;65902;51.452;7.198;2023-02-15T02:45:44;29.95;;;16.77;;
76962;SDS011;65902;51.452;7.198;2023-02-15T02:48:05;28.75;;;19.45;;
76962;SDS011;65902;51.452;7.198;2023-02-15T02:49:11;31.65;;;18.48;;
76962;SDS011;65902;51.452;7.198;2023-02-15T02:50:13;27.05;;;18.52;;
76962;SDS011;65902;51.452;7.198;2023-02-15T02:51:17;25.65;;;18.33;;
76962;SDS011;65902;51.452;7.198;2023-02-15T02:53:52;31.38;;;19.95;;
76962;SDS011;65902;51.452;7.198;2023-02-15T02:54:56;27.45;;;17.15;;
76962;SDS011;65902;51.452;7.198;2023-02-15T02:56:03;27.88;;;17.98;;
76962;SDS011;65902;51.452;7.198;2023-02-15T02:57:09;25.27;;;18.10;;
76962;SDS011;65902;51.452;7.198;2023-02-15T02:59:17;29.13;;;17.50;;
76962;SDS011;65902;51.452;7.198;2023-02-15T03:00:23;27.98;;;17.38;;
76962;SDS011;65902;51.452;7.198;2023-02-15T03:01:38;25.98;;;17.98;;
76962;SDS011;65902;51.452;7.198;2023-02-15T03:02:43;29.65;;;16.58;;
76962;SDS011;65902;51.452;7.198;2023-02-15T03:03:48;27.55;;;17.63;;
76962;SDS011;65902;51.452;7.198;2023-02-15T03:04:51;27.08;;;17.77;;
76962;SDS011;65902;51.452;7.198;2023-02-15T03:06:00;26.55;;;17.90;;
76962;SDS011;65902;51.452;7.198;2023-02-15T03:07:07;27.25;;;19.33;;
76962;SDS011;65902;51.452;7.198;2023-02-15T03:08:14;30.58;;;21.15;;
76962;SDS011;65902;51.452;7.198;2023-02-15T03:09:25;27.98;;;18.38;;
76962;SDS011;65902;51.452;7.198;2023-02-15T03:10:34;31.10;;;18.77;;
76962;SDS011;65902;51.452;7.198;2023-02-15T03:11:36;30.13;;;18.70;;
76962;SDS011;65902;51.452;7.198;2023-02-15T03:12:39;32.22;;;20.48;;
76962;SDS011;65902;51.452;7.198;2023-02-15T03:13:43;32.35;;;28.90;;
76962;SDS011;65902;51.452;7.198;2023-02-15T03:14:48;26.90;;;18.77;;
76962;SDS011;65902;51.452;7.198;2023-02-15T03:15:52;31.35;;;21.20;;
76962;SDS011;65902;51.452;7.198;2023-02-15T03:17:11;32.75;;;20.10;;
76962;SDS011;65902;51.452;7.198;2023-02-15T03:18:14;31.38;;;20.80;;
76962;SDS011;65902;51.452;7.198;2023-02-15T03:19:17;31.30;;;20.30;;
76962;SDS011;65902;51.452;7.198;2023-02-15T03:20:25;26.92;;;19.30;;
76962;SDS011;65902;51.452;7.198;2023-02-15T03:22:38;31.65;;;20.10;;
76962;SDS011;65902;51.452;7.198;2023-02-15T03:23:43;31.40;;;21.88;;
76962;SDS011;65902;51.452;7.198;2023-02-15T03:24:47;31.67;;;19.70;;
76962;SDS011;65902;51.452;7.198;2023-02-15T03:25:59;30.95;;;18.95;;
76962;SDS011;65902;51.452;7.198;2023-02-15T03:27:02;30.00;;;20.15;;
76962;SDS011;65902;51.452;7.198;2023-02-15T03:28:11;29.27;;;19.42;;
76962;SDS011;65902;51.452;7.198;2023-02-15T03:29:18;29.08;;;21.52;;
76962;SDS011;65902;51.452;7.198;2023-02-15T03:30:20;32.35;;;20.75;;
76962;SDS011;65902;51.452;7.198;2023-02-15T03:31:24;31.08;;;21.10;;
76962;SDS011;65902;51.452;7.198;2023-02-15T03:32:27;30.73;;;19.65;;
76962;SDS011;65902;51.452;7.198;2023-02-15T03:33:33;28.13;;;19.00;;
76962;SDS011;65902;51.452;7.198;2023-02-15T03:34:36;30.85;;;18.50;;
76962;SDS011;65902;51.452;7.198;2023-02-15T03:35:39;28.98;;;19.88;;
76962;SDS011;65902;51.452;7.198;2023-02-15T03:36:50;34.45;;;19.75;;
76962;SDS011;65902;51.452;7.198;2023-02-15T03:37:57;30.02;;;21.08;;
76962;SDS011;65902;51.452;7.198;2023-02-15T03:39:19;29.02;;;20.13;;
76962;SDS011;65902;51.452;7.198;2023-02-15T03:41:54;29.55;;;17.73;;
76962;SDS011;65902;51.452;7.198;2023-02-15T03:43:04;27.90;;;19.17;;
76962;SDS011;65902;51.452;7.198;2023-02-15T03:44:15;26.33;;;19.02;;
76962;SDS011;65902;51.452;7.198;2023-02-15T03:45:22;29.25;;;19.10;;
76962;SDS011;65902;51.452;7.198;2023-02-15T03:47:34;31.42;;;19.98;;
76962;SDS011;65902;51.452;7.198;2023-02-15T03:48:44;29.13;;;20.27;;
76962;SDS011;65902;51.452;7.198;2023-02-15T03:49:52;25.98;;;16.90;;
76962;SDS011;65902;51.452;7.198;2023-02-15T03:50:57;30.48;;;20.83;;
76962;SDS011;65902;51.452;7.198;2023-02-15T03:52:19;35.00;;;20.15;;
76962;SDS011;65902;51.452;7.198;2023-02-15T03:53:21;32.70;;;20.50;;
76962;SDS011;65902;51.452;7.198;2023-02-15T03:54:26;35.35;;;19.45;;
76962;SDS011;65902;51.452;7.198;2023-02-15T03:55:45;29.85;;;20.15;;
76962;SDS011;65902;51.452;7.198;2023-02-15T03:56:49;32.03;;;19.50;;
76962;SDS011;65902;51.452;7.198;2023-02-15T03:58:10;32.28;;;20.42;;
76962;SDS011;65902;51.452;7.198;2023-02-15T03:59:29;30.05;;;20.63;;
76962;SDS011;65902;51.452;7.198;2023-02-15T04:00:58;30.60;;;21.05;;
76962;SDS011;65902;51.452;7.198;2023-02-15T04:02:21;28.25;;;20.27;;
76962;SDS011;65902;51.452;7.198;2023-02-15T04:03:29;33.47;;;20.15;;
76962;SDS011;65902;51.452;7.198;2023-02-15T04:04:37;30.13;;;19.33;;
76962;SDS011;65902;51.452;7.198;2023-02-15T04:05:39;31.30;;;18.95;;
76962;SDS011;65902;51.452;7.198;2023-02-15T04:06:40;31.33;;;18.48;;
76962;SDS011;65902;51.452;7.198;2023-02-15T04:07:41;32.28;;;20.67;;
76962;SDS011;65902;51.452;7.198;2023-02-15T04:08:41;29.83;;;19.30;;
76962;SDS011;65902;51.452;7.198;2023-02-15T04:10:01;35.05;;;23.27;;
76962;SDS011;65902;51.452;7.198;2023-02-15T04:11:20;30.70;;;19.00;;
76962;SDS011;65902;51.452;7.198;2023-02-15T04:12:21;32.50;;;19.85;;
76962;SDS011;65902;51.452;7.198;2023-02-15T04:13:23;32.50;;;23.42;;
76962;SDS011;65902;51.452;7.198;2023-02-15T04:14:32;29.98;;;18.25;;
76962;SDS011;65902;51.452;7.198;2023-02-15T04:15:53;32.65;;;19.75;;
76962;SDS011;65902;51.452;7.198;2023-02-15T04:17:06;31.92;;;20.98;;
76962;SDS011;65902;51.452;7.198;2023-02-15T04:18:08;28.67;;;18.92;;
76962;SDS011;65902;51.452;7.198;2023-02-15T04:19:09;29.30;;;20.38;;
76962;SDS011;65902;51.452;7.198;2023-02-15T04:20:28;28.85;;;21.65;;
76962;SDS011;65902;51.452;7.198;2023-02-15T04:21:47;30.00;;;18.77;;
76962;SDS011;65902;51.452;7.198;2023-02-15T04:23:07;27.92;;;19.13;;
76962;SDS011;65902;51.452;7.198;2023-02-15T04:24:29;29.00;;;20.80;;
76962;SDS011;65902;51.452;7.198;2023-02-15T04:25:50;28.75;;;21.40;;
76962;SDS011;65902;51.452;7.198;2023-02-15T04:26:51;29.90;;;23.27;;
76962;SDS011;65902;51.452;7.198;2023-02-15T04:27:53;30.80;;;19.25;;
76962;SDS011;65902;51.452;7.198;2023-02-15T04:28:54;31.08;;;19.98;;
76962;SDS011;65902;51.452;7.198;2023-02-15T04:29:57;31.40;;;20.40;;
76962;SDS011;65902;51.452;7.198;2023-02-15T04:31:03;31.17;;;22.65;;
76962;SDS011;65902;51.452;7.198;2023-02-15T04:32:06;33.88;;;21.67;;
76962;SDS011;65902;51.452;7.198;2023-02-15T04:33:07;32.95;;;20.90;;
76962;SDS011;65902;51.452;7.198;2023-02-15T04:34:10;28.77;;;19.65;;
76962;SDS011;65902;51.452;7.198;2023-02-15T04:35:14;31.20;;;20.00;;
76962;SDS011;65902;51.452;7.198;2023-02-15T04:36:14;33.63;;;23.02;;
76962;SDS011;65902;51.452;7.198;2023-02-15T04:37:15;33.50;;;23.27;;
76962;SDS011;65902;51.452;7.198;2023-02-15T04:38:16;33.00;;;21.73;;
76962;SDS011;65902;51.452;7.198;2023-02-15T04:39:17;35.33;;;21.73;;
76962;SDS011;65902;51.452;7.198;2023-02-15T04:40:18;32.72;;;20.13;;
76962;SDS011;65902;51.452;7.198;2023-02-15T04:41:19;33.88;;;21.05;;
76962;SDS011;65902;51.452;7.198;2023-02-15T04:42:20;32.33;;;21.20;;
76962;SDS011;65902;51.452;7.198;2023-02-15T04:43:21;34.15;;;23.40;;
76962;SDS011;65902;51.452;7.198;2023-02-15T04:44:22;31.35;;;22.20;;
76962;SDS011;65902;51.452;7.198;2023-02-15T04:45:25;30.90;;;20.20;;
76962;SDS011;65902;51.452;7.198;2023-02-15T04:46:27;34.33;;;22.15;;
76962;SDS011;65902;51.452;7.198;2023-02-15T04:47:28;34.53;;;20.38;;
76962;SDS011;65902;51.452;7.198;2023-02-15T04:48:29;33.33;;;21.35;;
76962;SDS011;65902;51.452;7.198;2023-02-15T04:49:30;30.83;;;21.17;;
76962;SDS011;65902;51.452;7.198;2023-02-15T04:50:31;33.42;;;20.15;;
76962;SDS011;65902;51.452;7.198;2023-02-15T04:51:35;36.90;;;22.75;;
76962;SDS011;65902;51.452;7.198;2023-02-15T04:52:36;32.58;;;23.17;;
76962;SDS011;65902;51.452;7.198;2023-02-15T04:53:36;29.05;;;20.48;;
76962;SDS011;65902;51.452;7.198;2023-02-15T04:54:37;31.50;;;19.63;;
76962;SDS011;65902;51.452;7.198;2023-02-15T04:55:38;30.73;;;20.30;;
76962;SDS011;65902;51.452;7.198;2023-02-15T04:56:41;31.80;;;21.88;;
76962;SDS011;65902;51.452;7.198;2023-02-15T04:57:42;29.60;;;20.65;;
76962;SDS011;65902;51.452;7.198;2023-02-15T04:58:43;39.00;;;21.52;;
76962;SDS011;65902;51.452;7.198;2023-02-15T05:00:49;25.55;;;17.02;;
76962;SDS011;65902;51.452;7.198;2023-02-15T05:01:50;33.38;;;20.45;;
76962;SDS011;65902;51.452;7.198;2023-02-15T05:02:52;32.67;;;20.98;;
76962;SDS011;65902;51.452;7.198;2023-02-15T05:03:53;34.10;;;23.58;;
76962;SDS011;65902;51.452;7.198;2023-02-15T05:04:56;31.90;;;23.40;;
76962;SDS011;65902;51.452;7.198;2023-02-15T05:05:59;30.13;;;21.77;;
76962;SDS011;65902;51.452;7.198;2023-02-15T05:07:00;33.55;;;22.38;;
76962;SDS011;65902;51.452;7.198;2023-02-15T05:08:01;32.30;;;19.45;;
76962;SDS011;65902;51.452;7.198;2023-02-15T05:09:06;29.92;;;21.42;;
76962;SDS011;65902;51.452;7.198;2023-02-15T05:10:07;30.65;;;19.00;;
76962;SDS011;65902;51.452;7.198;2023-02-15T05:11:08;33.08;;;21.52;;
76962;SDS011;65902;51.452;7.198;2023-02-15T05:12:14;35.28;;;19.90;;
76962;SDS011;65902;51.452;7.198;2023-02-15T05:13:17;31.63;;;21.13;;
76962;SDS011;65902;51.452;7.198;2023-02-15T05:14:21;32.00;;;24.42;;
76962;SDS011;65902;51.452;7.198;2023-02-15T05:15:24;29.23;;;20.77;;
76962;SDS011;65902;51.452;7.198;2023-02-15T05:16:24;32.20;;;21.15;;
76962;SDS011;65902;51.452;7.198;2023-02-15T05:17:25;31.92;;;20.05;;
76962;SDS011;65902;51.452;7.198;2023-02-15T05:18:28;33.88;;;22.08;;
76962;SDS011;65902;51.452;7.198;2023-02-15T05:19:31;34.55;;;20.17;;
76962;SDS011;65902;51.452;7.198;2023-02-15T05:20:32;33.00;;;19.45;;
76962;SDS011;65902;51.452;7.198;2023-02-15T05:21:33;28.60;;;17.85;;
76962;SDS011;65902;51.452;7.198;2023-02-15T05:22:37;29.98;;;18.80;;
76962;SDS011;65902;51.452;7.198;2023-02-15T05:24:38;26.45;;;18.20;;
76962;SDS011;65902;51.452;7.198;2023-02-15T05:26:00;33.15;;;19.67;;
76962;SDS011;65902;51.452;7.198;2023-02-15T05:27:22;37.03;;;20.70;;
76962;SDS011;65902;51.452;7.198;2023-02-15T05:28:41;32.10;;;22.90;;
76962;SDS011;65902;51.452;7.198;2023-02-15T05:29:41;32.30;;;19.30;;
76962;SDS011;65902;51.452;7.198;2023-02-15T05:30:42;32.38;;;20.23;;
76962;SDS011;65902;51.452;7.198;2023-02-15T05:31:45;29.48;;;21.92;;
76962;SDS011;65902;51.452;7.198;2023-02-15T05:32:48;31.00;;;19.20;;
76962;SDS011;65902;51.452;7.198;2023-02-15T05:33:51;32.30;;;21.10;;
76962;SDS011;65902;51.452;7.198;2023-02-15T05:34:56;31.70;;;18.65;;
76962;SDS011;65902;51.452;7.198;2023-02-15T05:36:00;27.58;;;17.98;;
76962;SDS011;65902;51.452;7.198;2023-02-15T05:37:01;30.30;;;19.63;;
76962;SDS011;65902;51.452;7.198;2023-02-15T05:38:02;32.80;;;21.08;;
76962;SDS011;65902;51.452;7.198;2023-02-15T05:39:05;32.97;;;21.30;;
76962;SDS011;65902;51.452;7.198;2023-02-15T05:40:07;30.98;;;22.17;;
76962;SDS011;65902;51.452;7.198;2023-02-15T05:41:09;34.75;;;22.08;;
76962;SDS011;65902;51.452;7.198;2023-02-15T05:42:10;37.95;;;22.05;;
76962;SDS011;65902;51.452;7.198;2023-02-15T05:43:10;31.25;;;20.80;;
76962;SDS011;65902;51.452;7.198;2023-02-15T05:44:11;30.90;;;20.23;;
76962;SDS011;65902;51.452;7.198;2023-02-15T05:45:14;35.40;;;23.98;;
76962;SDS011;65902;51.452;7.198;2023-02-15T05:46:18;29.85;;;21.38;;
76962;SDS011;65902;51.452;7.198;2023-02-15T05:47:19;33.78;;;21.08;;
76962;SDS011;65902;51.452;7.198;2023-02-15T05:48:22;34.63;;;24.77;;
76962;SDS011;65902;51.452;7.198;2023-02-15T05:49:24;36.35;;;27.98;;
76962;SDS011;65902;51.452;7.198;2023-02-15T05:50:28;36.78;;;21.13;;
76962;SDS011;65902;51.452;7.198;2023-02-15T05:51:31;33.80;;;23.40;;
76962;SDS011;65902;51.452;7.198;2023-02-15T05:52:32;29.83;;;21.02;;
76962;SDS011;65902;51.452;7.198;2023-02-15T05:53:38;34.15;;;22.95;;
76962;SDS011;65902;51.452;7.198;2023-02-15T05:54:39;33.92;;;20.38;;
76962;SDS011;65902;51.452;7.198;2023-02-15T05:56:43;32.90;;;20.70;;
76962;SDS011;65902;51.452;7.198;2023-02-15T05:57:43;31.02;;;20.45;;
76962;SDS011;65902;51.452;7.198;2023-02-15T05:58:46;37.35;;;23.92;;
76962;SDS011;65902;51.452;7.198;2023-02-15T05:59:47;37.83;;;20.90;;
76962;SDS011;65902;51.452;7.198;2023-02-15T06:00:48;33.83;;;21.38;;
76962;SDS011;65902;51.452;7.198;2023-02-15T06:01:49;37.08;;;20.77;;
76962;SDS011;65902;51.452;7.198;2023-02-15T06:02:50;32.55;;;21.10;;
76962;SDS011;65902;51.452;7.198;2023-02-15T06:03:51;32.40;;;18.55;;
76962;SDS011;65902;51.452;7.198;2023-02-15T06:04:54;33.20;;;20.65;;
76962;SDS011;65902;51.452;7.198;2023-02-15T06:05:57;37.85;;;22.25;;
76962;SDS011;65902;51.452;7.198;2023-02-15T06:07:01;34.67;;;24.65;;
76962;SDS011;65902;51.452;7.198;2023-02-15T06:08:04;39.65;;;24.52;;
76962;SDS011;65902;51.452;7.198;2023-02-15T06:09:07;36.67;;;21.83;;
76962;SDS011;65902;51.452;7.198;2023-02-15T06:10:11;30.48;;;20.38;;
76962;SDS011;65902;51.452;7.198;2023-02-15T06:11:12;38.30;;;22.38;;
76962;SDS011;65902;51.452;7.198;2023-02-15T06:12:18;34.17;;;20.58;;
76962;SDS011;65902;51.452;7.198;2023-02-15T06:13:19;35.95;;;25.40;;
76962;SDS011;65902;51.452;7.198;2023-02-15T06:14:19;34.67;;;26.42;;
76962;SDS011;65902;51.452;7.198;2023-02-15T06:15:20;30.48;;;21.58;;
76962;SDS011;65902;51.452;7.198;2023-02-15T06:16:23;35.05;;;21.00;;
76962;SDS011;65902;51.452;7.198;2023-02-15T06:17:24;35.75;;;22.63;;
76962;SDS011;65902;51.452;7.198;2023-02-15T06:18:25;36.20;;;22.65;;
76962;SDS011;65902;51.452;7.198;2023-02-15T06:19:27;39.58;;;24.58;;
76962;SDS011;65902;51.452;7.198;2023-02-15T06:20:28;33.33;;;28.30;;
76962;SDS011;65902;51.452;7.198;2023-02-15T06:21:31;30.80;;;19.77;;
76962;SDS011;65902;51.452;7.198;2023-02-15T06:22:31;34.75;;;21.55;;
76962;SDS011;65902;51.452;7.198;2023-02-15T06:23:32;31.73;;;19.10;;
76962;SDS011;65902;51.452;7.198;2023-02-15T06:24:33;36.65;;;23.27;;
76962;SDS011;65902;51.452;7.198;2023-02-15T06:25:34;34.10;;;22.95;;
76962;SDS011;65902;51.452;7.198;2023-02-15T06:26:35;33.50;;;23.42;;
76962;SDS011;65902;51.452;7.198;2023-02-15T06:27:36;31.10;;;23.38;;
76962;SDS011;65902;51.452;7.198;2023-02-15T06:28:37;36.20;;;21.98;;
76962;SDS011;65902;51.452;7.198;2023-02-15T06:29:38;34.45;;;21.60;;
76962;SDS011;65902;51.452;7.198;2023-02-15T06:30:40;35.08;;;23.77;;
76962;SDS011;65902;51.452;7.198;2023-02-15T06:31:43;32.72;;;21.50;;
76962;SDS011;65902;51.452;7.198;2023-02-15T06:32:46;32.83;;;22.10;;
76962;SDS011;65902;51.452;7.198;2023-02-15T06:33:47;32.22;;;20.70;;
76962;SDS011;65902;51.452;7.198;2023-02-15T06:35:51;32.47;;;18.63;;
76962;SDS011;65902;51.452;7.198;2023-02-15T06:36:52;33.08;;;22.40;;
76962;SDS011;65902;51.452;7.198;2023-02-15T06:37:55;35.60;;;23.67;;
76962;SDS011;65902;51.452;7.198;2023-02-15T06:39:00;30.33;;;20.02;;
76962;SDS011;65902;51.452;7.198;2023-02-15T06:40:03;33.60;;;23.13;;
76962;SDS011;65902;51.452;7.198;2023-02-15T06:41:04;31.10;;;22.33;;
76962;SDS011;65902;51.452;7.198;2023-02-15T06:42:05;34.03;;;21.05;;
76962;SDS011;65902;51.452;7.198;2023-02-15T06:43:08;38.60;;;32.42;;
76962;SDS011;65902;51.452;7.198;2023-02-15T06:44:09;33.45;;;21.95;;
76962;SDS011;65902;51.452;7.198;2023-02-15T06:45:10;33.35;;;20.90;;
76962;SDS011;65902;51.452;7.198;2023-02-15T06:47:16;28.90;;;18.65;;
76962;SDS011;65902;51.452;7.198;2023-02-15T06:48:19;32.75;;;19.63;;
76962;SDS011;65902;51.452;7.198;2023-02-15T06:49:19;33.03;;;21.13;;
76962;SDS011;65902;51.452;7.198;2023-02-15T06:50:23;33.80;;;22.67;;
76962;SDS011;65902;51.452;7.198;2023-02-15T06:51:24;32.65;;;21.33;;
76962;SDS011;65902;51.452;7.198;2023-02-15T06:52:27;32.17;;;19.73;;
76962;SDS011;65902;51.452;7.198;2023-02-15T06:53:29;30.27;;;20.05;;
76962;SDS011;65902;51.452;7.198;2023-02-15T06:54:30;33.05;;;19.45;;
76962;SDS011;65902;51.452;7.198;2023-02-15T06:55:30;32.83;;;20.95;;
76962;SDS011;65902;51.452;7.198;2023-02-15T06:56:31;32.35;;;19.85;;
76962;SDS011;65902;51.452;7.198;2023-02-15T06:57:35;31.35;;;21.08;;
76962;SDS011;65902;51.452;7.198;2023-02-15T06:58:40;34.00;;;18.92;;
76962;SDS011;65902;51.452;7.198;2023-02-15T06:59:42;35.05;;;21.00;;
76962;SDS011;65902;51.452;7.198;2023-02-15T07:00:43;30.05;;;19.83;;
76962;SDS011;65902;51.452;7.198;2023-02-15T07:01:49;37.42;;;23.00;;
76962;SDS011;65902;51.452;7.198;2023-02-15T07:02:54;37.42;;;23.35;;